Heron Island AWS may experience intermittent outages while the Heron Island Research Station upgrades infrastructure on the island

Latest Weather Observations for Heron Island

IDQ60801

Issued at 6:22 pm EST Tuesday 26 January 2021 (issued every 10 minutes, with the page automatically refreshed every 10 minutes)

About weather observations | Map of weather stations | Latest weather observations for QLD | Other Formats
Station Details ID: 039122 Name: HERON ISLAND RES STN Lat: -23.44 Lon: 151.91 Height: 3.3 m
Data from the previous 72 hours. | See also: Recent months at Heron Island
Date/Time
EST
Temp
°C
App
Temp
°C
Dew
Point
°C
Rel
Hum
%
Delta-T
°C
Wind Press
QNH
hPa
Press
MSL
hPa
Rain since
9am
mm
Dir  Spd
km/h
Gust
km/h
Spd
kts
Gust
kts
26/06:00pm - - - - - ENE 20 32 11 17 - - -
26/05:30pm - - - - - E 19 28 10 15 - - -
26/05:00pm - - - - - ENE 17 26 9 14 - - -
26/04:30pm - - - - - E 15 28 8 15 - - -
26/04:00pm - - - - - E 15 24 8 13 - - -
26/03:30pm - - - - - E 13 24 7 13 - - -
26/03:00pm - - - - - E 13 24 7 13 - - -
26/02:30pm - - - - - E 11 17 6 9 - - -
26/02:00pm - - - - - E 13 20 7 11 - - -
26/01:30pm - - - - - E 13 19 7 10 - - -
26/01:00pm - - - - - E 11 17 6 9 - - -
26/12:30pm - - - - - E 13 17 7 9 - - -
26/12:00pm - - - - - ESE 11 17 6 9 - - -
26/11:30am - - - - - ENE 13 17 7 9 - - -
26/11:00am - - - - - ENE 13 19 7 10 - - -
26/10:30am - - - - - E 13 17 7 9 - - -
26/10:00am - - - - - E 11 17 6 9 - - -
26/09:30am - - - - - E 13 17 7 9 - - -
26/09:00am - - - - - ESE 13 19 7 10 - - -
26/08:30am - - - - - ESE 17 24 9 13 - - -
26/07:30am - - - - - E 15 22 8 12 - - -
26/07:00am - - - - - E 13 19 7 10 - - -
26/06:30am - - - - - E 13 20 7 11 - - -
26/06:00am - - - - - E 15 22 8 12 - - -
26/05:30am - - - - - ESE 15 22 8 12 - - -
26/05:00am - - - - - ESE 13 19 7 10 - - -
26/04:30am - - - - - ESE 13 19 7 10 - - -
26/04:00am - - - - - ESE 13 19 7 10 - - -
26/03:30am - - - - - ESE 13 19 7 10 - - -
26/03:00am - - - - - ESE 13 19 7 10 - - -
26/02:30am - - - - - E 11 15 6 8 - - -
26/02:00am - - - - - E 13 17 7 9 - - -
26/01:30am - - - - - ENE 15 20 8 11 - - -
26/01:00am - - - - - E 17 28 9 15 - - -
26/12:30am - - - - - E 15 24 8 13 - - -
26/12:00am - - - - - E 19 28 10 15 - - -
 
Date/Time
EST
Temp
°C
App
Temp
°C
Dew
Point
°C
Rel
Hum
%
Delta-T
°C
Wind Press
QNH
hPa
Press
MSL
hPa
Rain since
9am
mm
Dir  Spd
km/h
Gust
km/h
Spd
kts
Gust
kts
25/11:30pm - - - - - E 19 30 10 16 - - -
25/11:00pm - - - - - E 20 32 11 17 - - -
25/10:30pm - - - - - E 22 32 12 17 - - -
25/10:00pm - - - - - E 22 33 12 18 - - -
25/09:30pm - - - - - E 20 30 11 16 - - -
25/09:00pm - - - - - E 22 33 12 18 - - -
25/08:30pm - - - - - E 24 35 13 19 - - -
25/08:00pm - - - - - E 22 33 12 18 - - -
25/07:30pm - - - - - E 19 30 10 16 - - -
25/07:00pm - - - - - E 20 32 11 17 - - -
25/06:30pm - - - - - E 20 30 11 16 - - -
25/06:00pm - - - - - ENE 24 33 13 18 - - -
25/05:30pm - - - - - ESE 24 33 13 18 - - -
25/05:00pm - - - - - ESE 20 33 11 18 - - -
25/04:30pm - - - - - ESE 20 30 11 16 - - -
25/04:00pm - - - - - ESE 22 32 12 17 - - -
25/03:30pm - - - - - SE 22 32 12 17 - - -
25/03:00pm - - - - - ESE 22 32 12 17 - - -
25/02:30pm - - - - - ESE 20 30 11 16 - - -
25/02:00pm - - - - - SE 24 32 13 17 - - -
25/01:30pm - - - - - ESE 20 30 11 16 - - -
25/01:00pm - - - - - ESE 19 30 10 16 - - -
25/12:30pm - - - - - ESE 17 26 9 14 - - -
25/12:00pm - - - - - ESE 17 26 9 14 - - -
25/11:30am - - - - - ESE 20 32 11 17 - - -
25/11:00am - - - - - ESE 22 33 12 18 - - -
25/10:30am - - - - - ESE 24 33 13 18 - - -
25/10:00am - - - - - E 22 32 12 17 - - -
25/09:30am - - - - - E 24 33 13 18 - - -
25/09:00am - - - - - E 24 35 13 19 - - -
25/08:30am - - - - - E 24 33 13 18 - - -
25/08:00am - - - - - E 26 43 14 23 - - -
25/07:30am - - - - - E 20 32 11 17 - - -
25/07:00am - - - - - E 24 33 13 18 - - -
25/06:30am - - - - - ESE 24 35 13 19 - - -
25/06:00am - - - - - E 33 52 18 28 - - -
25/05:30am - - - - - ESE 26 39 14 21 - - -
25/05:00am - - - - - ESE 22 33 12 18 - - -
25/04:30am - - - - - ESE 30 44 16 24 - - -
25/04:00am - - - - - ESE 30 46 16 25 - - -
25/03:30am - - - - - ESE 26 37 14 20 - - -
25/03:00am - - - - - E 26 37 14 20 - - -
25/02:30am - - - - - E 17 30 9 16 - - -
25/02:00am - - - - - E 22 30 12 16 - - -
25/01:30am - - - - - E 20 30 11 16 - - -
25/01:00am - - - - - SE 17 24 9 13 - - -
25/12:30am - - - - - SSE 13 20 7 11 - - -
25/12:00am - - - - - SE 19 24 10 13 - - -
 
Date/Time
EST
Temp
°C
App
Temp
°C
Dew
Point
°C
Rel
Hum
%
Delta-T
°C
Wind Press
QNH
hPa
Press
MSL
hPa
Rain since
9am
mm
Dir  Spd
km/h
Gust
km/h
Spd
kts
Gust
kts
24/11:30pm - - - - - SE 26 35 14 19 - - -
24/11:00pm - - - - - E 15 28 8 15 - - -
24/10:30pm - - - - - ESE 15 26 8 14 - - -
24/10:00pm - - - - - E 19 32 10 17 - - -
24/09:30pm - - - - - E 20 30 11 16 - - -
24/09:00pm - - - - - E 17 28 9 15 - - -
24/08:30pm - - - - - ESE 17 26 9 14 - - -
24/08:00pm - - - - - E 17 22 9 12 - - -
24/07:30pm - - - - - E 15 22 8 12 - - -
24/07:00pm - - - - - E 19 28 10 15 - - -
24/06:30pm - - - - - E 20 30 11 16 - - -
24/06:00pm - - - - - E 20 30 11 16 - - -
24/05:30pm - - - - - E 22 30 12 16 - - -
24/05:00pm - - - - - E 20 30 11 16 - - -
24/04:30pm - - - - - SE 26 39 14 21 - - -
24/04:00pm - - - - - ESE 22 30 12 16 - - -
24/03:30pm - - - - - ESE 22 33 12 18 - - -
24/03:00pm - - - - - ESE 20 30 11 16 - - -
24/02:30pm - - - - - ESE 24 33 13 18 - - -
24/02:00pm - - - - - SSE 22 35 12 19 - - -
24/01:30pm - - - - - ESE 19 32 10 17 - - -
24/01:00pm - - - - - ESE 22 32 12 17 - - -
24/12:30pm - - - - - ESE 22 35 12 19 - - -
24/12:00pm - - - - - E 20 32 11 17 - - -
24/11:30am - - - - - E 24 37 13 20 - - -
24/11:00am - - - - - E 24 39 13 21 - - -
24/10:30am - - - - - E 20 30 11 16 - - -
24/10:00am - - - - - SE 17 26 9 14 - - -
24/09:30am - - - - - SE 15 19 8 10 - - -
24/09:00am - - - - - E 20 35 11 19 - - -
24/08:30am - - - - - E 28 39 15 21 - - -
24/08:00am - - - - - ESE 19 32 10 17 - - -
24/07:30am - - - - - ESE 20 32 11 17 - - -
24/07:00am - - - - - ESE 20 35 11 19 - - -
24/06:30am - - - - - ESE 22 32 12 17 - - -
24/06:00am - - - - - ESE 22 35 12 19 - - -
24/05:30am - - - - - E 20 30 11 16 - - -
24/05:00am - - - - - ESE 20 32 11 17 - - -
24/04:30am - - - - - E 20 32 11 17 - - -
24/04:00am - - - - - E 22 37 12 20 - - -
24/03:30am - - - - - ESE 22 32 12 17 - - -
24/03:00am - - - - - ESE 19 32 10 17 - - -
24/02:30am - - - - - ESE 22 33 12 18 - - -
24/02:00am - - - - - ESE 24 35 13 19 - - -
24/01:30am - - - - - ESE 20 33 11 18 - - -
24/01:00am - - - - - ESE 22 33 12 18 - - -
24/12:30am - - - - - E 20 32 11 17 - - -
24/12:00am - - - - - ESE 20 33 11 18 - - -
 
Date/Time
EST
Temp
°C
App
Temp
°C
Dew
Point
°C
Rel
Hum
%
Delta-T
°C
Wind Press
QNH
hPa
Press
MSL
hPa
Rain since
9am
mm
Dir  Spd
km/h
Gust
km/h
Spd
kts
Gust
kts
23/11:30pm - - - - - ESE 20 30 11 16 - - -
23/11:00pm - - - - - ESE 22 33 12 18 - - -
23/10:30pm - - - - - ESE 26 37 14 20 - - -
23/10:00pm - - - - - E 24 35 13 19 - - -
23/09:30pm - - - - - E 24 35 13 19 - - -
23/09:00pm - - - - - ESE 24 41 13 22 - - -
23/08:30pm - - - - - ESE 28 39 15 21 - - -
23/08:00pm - - - - - ESE 24 37 13 20 - - -
23/07:30pm - - - - - E 26 37 14 20 - - -
23/07:00pm - - - - - E 22 33 12 18 - - -
23/06:30pm - - - - - E 24 37 13 20 - - -

Other formats

Comma delimited format used in spreadsheet applications
http://www.bom.gov.au/fwo/IDQ60801/IDQ60801.94386.axf

JavaScript Object Notation format (JSON) in row-major order
http://www.bom.gov.au/fwo/IDQ60801/IDQ60801.94386.json

Data quality

Most of these data are generated automatically and are frequently updated. Quality checks on data are not normally performed. It is possible for incorrect values to appear. Refer to information at About Latest Weather Observations and please check the disclaimer before using these data.